Time;durP1;ratioP1;P1;durP2;ratioP2;P2;SDS_P1;SDS_P2;PMS_P1;PMS_P2;Temp;Humidity;BMP_temperature;BMP_pressure;BME280_temperature;BME280_humidity;BME280_pressure;Samples;Min_cycle;Max_cycle;Signal;HPM_P1;HPM_P2
2021/07/04 00:00:18;;;;;;;19.98;13.40;;;;;;;;;;1493229;39;20480;-60
2021/07/04 00:01:19;;;;;;;22.63;14.52;;;;;;;;;;1492682;39;20094;-60
2021/07/04 00:02:21;;;;;;;21.10;13.88;;;;;;;;;;1492530;39;20019;-60
2021/07/04 00:03:22;;;;;;;21.73;14.63;;;;;;;;;;1493245;39;20028;-60
2021/07/04 00:04:23;;;;;;;23.42;15.02;;;;;;;;;;1493308;39;20026;-62
2021/07/04 00:05:28;;;;;;;23.35;15.10;;;;;;;;;;1493272;39;20084;-62
2021/07/04 00:06:30;;;;;;;19.92;13.43;;;;;;;;;;1493266;39;20056;-60
2021/07/04 00:07:31;;;;;;;22.10;14.05;;;;;;;;;;1493037;39;20024;-60
2021/07/04 00:08:33;;;;;;;18.88;12.65;;;;;;;;;;1493166;39;20020;-60
2021/07/04 00:09:33;;;;;;;21.23;14.02;;;;;;;;;;1493133;39;20396;-60
2021/07/04 00:10:38;;;;;;;20.63;13.80;;;;;;;;;;1493187;39;20047;-60
2021/07/04 00:11:39;;;;;;;24.83;14.43;;;;;;;;;;1493275;39;20028;-60
2021/07/04 00:12:41;;;;;;;23.00;15.00;;;;;;;;;;1493202;39;20035;-60
2021/07/04 00:13:43;;;;;;;22.52;14.18;;;;;;;;;;1493255;39;20026;-60
2021/07/04 00:14:44;;;;;;;25.73;15.23;;;;;;;;;;1493113;39;20109;-60
2021/07/04 00:15:46;;;;;;;21.90;14.65;;;;;;;;;;1493270;39;20030;-60
2021/07/04 00:16:48;;;;;;;23.27;14.93;;;;;;;;;;1493041;39;20028;-60
2021/07/04 00:17:49;;;;;;;22.48;14.80;;;;;;;;;;1493087;39;20020;-60
2021/07/04 00:18:51;;;;;;;23.38;14.93;;;;;;;;;;1493037;39;20395;-60
2021/07/04 00:19:52;;;;;;;22.67;14.73;;;;;;;;;;1493057;39;20296;-61
2021/07/04 00:20:57;;;;;;;22.90;14.48;;;;;;;;;;1493278;39;20019;-60
2021/07/04 00:21:58;;;;;;;22.40;14.30;;;;;;;;;;1493256;39;20024;-60
2021/07/04 00:23:00;;;;;;;24.90;14.57;;;;;;;;;;1493153;39;20028;-60
2021/07/04 00:24:02;;;;;;;23.77;14.85;;;;;;;;;;1493103;39;20031;-61
2021/07/04 00:25:06;;;;;;;23.73;13.88;;;;;;;;;;1493278;39;20418;-60
2021/07/04 00:26:08;;;;;;;21.17;13.65;;;;;;;;;;1493060;39;20020;-60
2021/07/04 00:27:09;;;;;;;20.88;12.65;;;;;;;;;;1493326;39;20055;-60
2021/07/04 00:28:11;;;;;;;22.48;13.45;;;;;;;;;;1493139;39;20388;-60
2021/07/04 00:29:12;;;;;;;20.88;13.80;;;;;;;;;;1493017;39;20024;-60
2021/07/04 00:30:17;;;;;;;24.10;13.95;;;;;;;;;;1493103;39;20035;-60
2021/07/04 00:31:18;;;;;;;19.73;13.48;;;;;;;;;;1493012;39;20046;-62
2021/07/04 00:32:19;;;;;;;23.15;13.82;;;;;;;;;;1493191;39;20031;-60
2021/07/04 00:33:20;;;;;;;22.17;14.02;;;;;;;;;;1493117;39;20031;-62
2021/07/04 00:34:22;;;;;;;21.00;13.65;;;;;;;;;;1493186;39;20027;-62
2021/07/04 00:35:23;;;;;;;23.13;13.95;;;;;;;;;;1493134;39;20031;-60
2021/07/04 00:36:27;;;;;;;21.65;14.52;;;;;;;;;;1493153;39;20036;-62
2021/07/04 00:37:34;;;;;;;20.60;14.02;;;;;;;;;;1493011;39;20024;-60
2021/07/04 00:38:41;;;;;;;21.85;13.65;;;;;;;;;;1493003;39;20111;-60
2021/07/04 00:39:42;;;;;;;25.17;13.98;;;;;;;;;;1493116;39;20028;-60
2021/07/04 00:40:44;;;;;;;23.20;13.32;;;;;;;;;;1493424;39;20379;-60
2021/07/04 00:41:45;;;;;;;19.85;13.48;;;;;;;;;;1493080;39;20046;-62
2021/07/04 00:42:47;;;;;;;19.25;12.82;;;;;;;;;;1493328;39;20375;-62
2021/07/04 00:43:48;;;;;;;20.85;13.73;;;;;;;;;;1493175;39;20050;-61
2021/07/04 00:44:51;;;;;;;24.77;14.23;;;;;;;;;;1493167;39;20035;-61
2021/07/04 00:45:52;;;;;;;22.15;13.30;;;;;;;;;;1493043;39;20027;-62
2021/07/04 00:46:53;;;;;;;20.40;13.32;;;;;;;;;;1493165;39;20050;-62
2021/07/04 00:47:57;;;;;;;20.70;13.98;;;;;;;;;;1493071;39;20398;-62
2021/07/04 00:49:01;;;;;;;20.33;13.07;;;;;;;;;;1493053;39;20024;-62
2021/07/04 00:50:02;;;;;;;19.65;13.40;;;;;;;;;;1492987;39;20075;-62
2021/07/04 00:51:04;;;;;;;23.65;15.00;;;;;;;;;;1493140;39;20031;-62
2021/07/04 00:52:07;;;;;;;22.25;14.30;;;;;;;;;;1493110;39;20020;-62
2021/07/04 00:53:09;;;;;;;19.73;13.18;;;;;;;;;;1492980;39;20028;-62
2021/07/04 00:54:10;;;;;;;21.13;13.55;;;;;;;;;;1493033;39;20028;-62
2021/07/04 00:55:14;;;;;;;21.98;12.98;;;;;;;;;;1493116;39;20036;-62
2021/07/04 00:56:15;;;;;;;22.10;13.38;;;;;;;;;;1492947;39;20027;-62
2021/07/04 00:57:17;;;;;;;21.73;13.52;;;;;;;;;;1493109;39;20023;-62
2021/07/04 00:58:18;;;;;;;22.27;14.00;;;;;;;;;;1493051;39;20306;-62
2021/07/04 00:59:21;;;;;;;22.45;13.90;;;;;;;;;;1493103;39;20024;-62
2021/07/04 01:00:23;;;;;;;23.42;13.38;;;;;;;;;;1493054;39;20019;-61
2021/07/04 01:01:25;;;;;;;22.65;13.93;;;;;;;;;;1493137;39;20059;-62
2021/07/04 01:02:26;;;;;;;24.95;14.10;;;;;;;;;;1492957;39;20082;-61
2021/07/04 01:03:28;;;;;;;20.75;12.65;;;;;;;;;;1493124;39;20068;-62
2021/07/04 01:04:29;;;;;;;20.60;13.20;;;;;;;;;;1492873;39;20028;-62
2021/07/04 01:05:33;;;;;;;21.23;12.57;;;;;;;;;;1492872;39;20030;-61
2021/07/04 01:06:34;;;;;;;19.42;12.93;;;;;;;;;;1493186;39;20026;-61
2021/07/04 01:07:38;;;;;;;20.80;12.75;;;;;;;;;;1492586;39;20477;-60
2021/07/04 01:08:39;;;;;;;20.35;12.90;;;;;;;;;;1492855;39;20016;-61
2021/07/04 01:09:40;;;;;;;21.45;13.35;;;;;;;;;;1493202;39;20024;-61
2021/07/04 01:10:41;;;;;;;21.08;13.55;;;;;;;;;;1492946;39;20039;-61
2021/07/04 01:11:44;;;;;;;21.17;13.48;;;;;;;;;;1493041;39;20020;-60
2021/07/04 01:12:47;;;;;;;21.63;13.95;;;;;;;;;;1493056;39;20032;-61
2021/07/04 01:13:49;;;;;;;21.85;14.05;;;;;;;;;;1493010;39;20056;-61
2021/07/04 01:14:49;;;;;;;23.83;15.27;;;;;;;;;;1492864;39;20020;-61
2021/07/04 01:15:51;;;;;;;21.58;14.13;;;;;;;;;;1492623;39;20028;-62
2021/07/04 01:16:52;;;;;;;19.75;13.18;;;;;;;;;;1492464;39;20024;-62
2021/07/04 01:17:56;;;;;;;20.42;13.48;;;;;;;;;;1493315;39;20028;-61
2021/07/04 01:18:58;;;;;;;22.25;12.60;;;;;;;;;;1492833;39;20403;-62
2021/07/04 01:20:01;;;;;;;18.92;12.35;;;;;;;;;;1492933;39;20372;-61
2021/07/04 01:21:04;;;;;;;19.98;12.85;;;;;;;;;;1492939;39;20016;-62
2021/07/04 01:22:06;;;;;;;19.90;12.80;;;;;;;;;;1492886;39;20066;-62
2021/07/04 01:23:11;;;;;;;21.25;13.82;;;;;;;;;;1492865;39;20027;-62
2021/07/04 01:24:13;;;;;;;18.17;12.88;;;;;;;;;;1493110;39;20464;-62
2021/07/04 01:25:15;;;;;;;22.15;13.52;;;;;;;;;;1492872;39;20291;-61
2021/07/04 01:26:17;;;;;;;18.05;12.80;;;;;;;;;;1493121;39;20055;-62
2021/07/04 01:27:18;;;;;;;20.17;13.55;;;;;;;;;;1492886;39;20020;-61
2021/07/04 01:28:20;;;;;;;20.02;13.05;;;;;;;;;;1492973;39;20023;-62
2021/07/04 01:29:21;;;;;;;20.40;13.05;;;;;;;;;;1492895;39;20387;-62
2021/07/04 01:30:24;;;;;;;17.58;12.57;;;;;;;;;;1493112;39;20106;-62
2021/07/04 01:31:26;;;;;;;22.50;13.48;;;;;;;;;;1492935;39;20020;-62
2021/07/04 01:32:28;;;;;;;22.20;13.63;;;;;;;;;;1492897;39;20088;-61
2021/07/04 01:33:30;;;;;;;17.75;12.70;;;;;;;;;;1492858;39;20031;-62
2021/07/04 01:34:31;;;;;;;19.58;14.07;;;;;;;;;;1493158;39;20024;-62
2021/07/04 01:35:32;;;;;;;20.77;12.23;;;;;;;;;;1492835;39;20024;-62
2021/07/04 01:36:37;;;;;;;19.50;12.57;;;;;;;;;;1492977;39;20024;-61
2021/07/04 01:37:38;;;;;;;18.33;12.00;;;;;;;;;;1492827;39;20303;-61
2021/07/04 01:38:41;;;;;;;19.80;12.45;;;;;;;;;;1492791;39;20035;-62
2021/07/04 01:39:42;;;;;;;17.13;12.13;;;;;;;;;;1492920;39;20105;-62
2021/07/04 01:40:44;;;;;;;18.58;12.30;;;;;;;;;;1492507;39;20064;-61
2021/07/04 01:41:45;;;;;;;17.83;12.63;;;;;;;;;;1492431;39;20295;-62
2021/07/04 01:42:49;;;;;;;16.90;11.85;;;;;;;;;;1492997;39;20036;-62
2021/07/04 01:43:50;;;;;;;18.35;12.77;;;;;;;;;;1492948;39;20116;-62
2021/07/04 01:44:52;;;;;;;18.88;12.07;;;;;;;;;;1493092;39;20047;-62
2021/07/04 01:45:54;;;;;;;19.92;12.55;;;;;;;;;;1492886;39;20406;-62
2021/07/04 01:46:56;;;;;;;17.80;11.93;;;;;;;;;;1492964;39;20398;-61
2021/07/04 01:47:56;;;;;;;21.27;12.75;;;;;;;;;;1492930;39;20396;-60
2021/07/04 01:48:58;;;;;;;22.42;12.15;;;;;;;;;;1493129;39;20024;-60
2021/07/04 01:49:59;;;;;;;19.08;12.18;;;;;;;;;;1492897;39;20028;-62
2021/07/04 01:51:01;;;;;;;20.63;12.75;;;;;;;;;;1492939;39;20028;-62
2021/07/04 01:52:02;;;;;;;23.77;14.00;;;;;;;;;;1492795;39;20391;-62
2021/07/04 01:53:04;;;;;;;20.70;12.25;;;;;;;;;;1492862;39;20036;-61
2021/07/04 01:54:06;;;;;;;14.95;10.57;;;;;;;;;;1492906;39;20020;-60
2021/07/04 01:55:11;;;;;;;16.80;10.50;;;;;;;;;;1492840;39;20299;-62
2021/07/04 01:56:12;;;;;;;17.38;10.48;;;;;;;;;;1492741;39;20031;-62
2021/07/04 01:57:14;;;;;;;15.98;11.00;;;;;;;;;;1492916;39;20024;-62
2021/07/04 01:58:15;;;;;;;15.45;10.88;;;;;;;;;;1492762;39;20025;-60
2021/07/04 01:59:17;;;;;;;15.43;10.82;;;;;;;;;;1493007;39;20024;-62
2021/07/04 02:00:21;;;;;;;14.95;10.55;;;;;;;;;;1492913;39;20020;-60
2021/07/04 02:01:23;;;;;;;17.23;10.77;;;;;;;;;;1493001;39;20055;-62
2021/07/04 02:02:30;;;;;;;16.75;10.85;;;;;;;;;;1492699;39;20296;-62
2021/07/04 02:03:32;;;;;;;18.67;12.60;;;;;;;;;;1492842;39;20023;-62
2021/07/04 02:04:37;;;;;;;18.27;12.05;;;;;;;;;;1492826;39;20020;-61
2021/07/04 02:05:40;;;;;;;18.17;12.25;;;;;;;;;;1492943;39;20065;-62
2021/07/04 02:06:41;;;;;;;18.38;11.50;;;;;;;;;;1492801;39;20016;-62
2021/07/04 02:07:43;;;;;;;18.65;11.48;;;;;;;;;;1492908;39;20027;-62
2021/07/04 02:08:44;;;;;;;20.20;12.77;;;;;;;;;;1492828;39;20024;-62
2021/07/04 02:09:48;;;;;;;18.70;11.35;;;;;;;;;;1492973;39;20020;-62
2021/07/04 02:10:50;;;;;;;18.13;11.23;;;;;;;;;;1492734;39;20384;-62
2021/07/04 02:11:51;;;;;;;19.27;11.82;;;;;;;;;;1492829;39;20024;-62
2021/07/04 02:12:53;;;;;;;15.65;10.48;;;;;;;;;;1492743;39;20035;-61
2021/07/04 02:13:54;;;;;;;17.92;10.90;;;;;;;;;;1492740;39;20115;-62
2021/07/04 02:14:56;;;;;;;14.07;10.68;;;;;;;;;;1492944;39;20024;-60
2021/07/04 02:15:57;;;;;;;17.25;11.32;;;;;;;;;;1492859;39;20096;-61
2021/07/04 02:16:59;;;;;;;19.02;11.05;;;;;;;;;;1492841;39;20032;-60
2021/07/04 02:18:03;;;;;;;15.88;10.30;;;;;;;;;;1492655;39;20072;-61
2021/07/04 02:19:05;;;;;;;16.25;10.57;;;;;;;;;;1492944;39;20028;-60
2021/07/04 02:20:29;;;;;;;15.95;10.27;;;;;;;;;;1493413;39;20392;-60
2021/07/04 02:21:31;;;;;;;14.45;9.95;;;;;;;;;;1493609;39;20031;-60
2021/07/04 02:22:32;;;;;;;17.92;10.00;;;;;;;;;;1493268;39;20028;-60
2021/07/04 02:23:34;;;;;;;15.57;9.55;;;;;;;;;;1493481;39;20023;-60
2021/07/04 02:24:35;;;;;;;16.38;10.35;;;;;;;;;;1493430;39;20372;-60
2021/07/04 02:25:40;;;;;;;16.02;9.68;;;;;;;;;;1493536;39;20086;-60
2021/07/04 02:26:41;;;;;;;12.20;9.27;;;;;;;;;;1493271;39;20038;-60
2021/07/04 02:27:43;;;;;;;18.50;10.80;;;;;;;;;;1493443;39;20027;-61
2021/07/04 02:28:44;;;;;;;17.58;10.07;;;;;;;;;;1493504;39;20028;-62
2021/07/04 02:29:45;;;;;;;15.07;10.13;;;;;;;;;;1493474;39;20408;-61
2021/07/04 02:30:48;;;;;;;15.98;10.32;;;;;;;;;;1493323;39;20400;-61
2021/07/04 02:31:49;;;;;;;18.20;10.60;;;;;;;;;;1493368;39;20027;-60
2021/07/04 02:32:51;;;;;;;16.65;11.32;;;;;;;;;;1493420;39;20062;-61
2021/07/04 02:33:52;;;;;;;19.02;10.48;;;;;;;;;;1493465;39;20031;-62
2021/07/04 02:34:54;;;;;;;13.73;9.35;;;;;;;;;;1493393;39;20291;-62
2021/07/04 02:35:57;;;;;;;14.93;10.15;;;;;;;;;;1493368;39;20031;-60
2021/07/04 02:36:59;;;;;;;16.35;10.68;;;;;;;;;;1493567;39;20042;-60
2021/07/04 02:38:01;;;;;;;18.95;10.27;;;;;;;;;;1493559;39;20032;-61
2021/07/04 02:39:04;;;;;;;15.40;10.73;;;;;;;;;;1493375;39;20040;-60
2021/07/04 02:40:06;;;;;;;20.15;11.52;;;;;;;;;;1493340;39;20024;-60
2021/07/04 02:41:09;;;;;;;17.77;11.60;;;;;;;;;;1493559;39;20051;-61
2021/07/04 02:42:10;;;;;;;16.05;10.90;;;;;;;;;;1493215;39;20024;-60
2021/07/04 02:43:14;;;;;;;15.88;10.52;;;;;;;;;;1493459;39;20024;-60
2021/07/04 02:44:15;;;;;;;14.25;10.02;;;;;;;;;;1493456;39;20020;-62
2021/07/04 02:45:17;;;;;;;15.48;10.65;;;;;;;;;;1493510;39;20054;-62
2021/07/04 02:46:18;;;;;;;15.13;9.75;;;;;;;;;;1493405;39;20076;-60
2021/07/04 02:47:20;;;;;;;16.50;10.30;;;;;;;;;;1493603;39;20028;-60
2021/07/04 02:48:22;;;;;;;16.88;10.57;;;;;;;;;;1493261;39;20020;-61
2021/07/04 02:49:23;;;;;;;15.75;9.85;;;;;;;;;;1493366;39;20020;-61
2021/07/04 02:50:25;;;;;;;14.25;10.48;;;;;;;;;;1493234;39;20403;-61
2021/07/04 02:51:26;;;;;;;18.25;11.18;;;;;;;;;;1493501;39;20388;-60
2021/07/04 02:52:27;;;;;;;17.20;10.65;;;;;;;;;;1493227;39;20446;-60
2021/07/04 02:53:29;;;;;;;16.98;10.65;;;;;;;;;;1493422;39;20067;-62
2021/07/04 02:54:30;;;;;;;16.02;10.75;;;;;;;;;;1493282;39;20112;-60
2021/07/04 02:55:32;;;;;;;16.55;11.30;;;;;;;;;;1493458;39;20040;-62
2021/07/04 02:56:34;;;;;;;18.58;11.05;;;;;;;;;;1493339;39;20030;-61
2021/07/04 02:57:36;;;;;;;21.38;11.30;;;;;;;;;;1493502;39;20092;-60
2021/07/04 02:58:37;;;;;;;17.85;10.43;;;;;;;;;;1493167;39;20028;-62
2021/07/04 02:59:39;;;;;;;14.98;10.27;;;;;;;;;;1493310;39;20024;-62
2021/07/04 03:00:41;;;;;;;16.88;11.27;;;;;;;;;;1493412;39;20027;-62
2021/07/04 03:01:43;;;;;;;15.52;9.70;;;;;;;;;;1493393;39;20031;-62
2021/07/04 03:02:44;;;;;;;18.08;11.18;;;;;;;;;;1493283;39;20024;-61
2021/07/04 03:03:46;;;;;;;16.52;11.68;;;;;;;;;;1493396;39;20032;-60
2021/07/04 03:04:47;;;;;;;17.58;11.10;;;;;;;;;;1493386;39;20050;-62
2021/07/04 03:05:50;;;;;;;16.55;10.43;;;;;;;;;;1493409;39;20028;-62
2021/07/04 03:06:51;;;;;;;18.58;12.63;;;;;;;;;;1493379;39;20024;-58
2021/07/04 03:07:52;;;;;;;16.80;11.35;;;;;;;;;;1493393;39;20395;-59
2021/07/04 03:08:53;;;;;;;15.80;10.52;;;;;;;;;;1493363;39;20028;-58
2021/07/04 03:09:55;;;;;;;15.40;11.13;;;;;;;;;;1493233;39;20031;-58
2021/07/04 03:10:57;;;;;;;17.55;11.18;;;;;;;;;;1493221;39;20406;-58
2021/07/04 03:11:59;;;;;;;15.60;10.60;;;;;;;;;;1493159;39;20020;-58
2021/07/04 03:13:01;;;;;;;16.95;10.93;;;;;;;;;;1493357;39;20039;-58
2021/07/04 03:14:02;;;;;;;18.90;11.40;;;;;;;;;;1493380;39;20027;-58
2021/07/04 03:15:05;;;;;;;17.58;11.65;;;;;;;;;;1493292;39;20287;-59
2021/07/04 03:16:05;;;;;;;19.35;13.07;;;;;;;;;;1493385;39;20024;-58
2021/07/04 03:17:07;;;;;;;17.67;11.82;;;;;;;;;;1493354;39;20117;-58
2021/07/04 03:18:09;;;;;;;20.48;12.38;;;;;;;;;;1493351;39;20035;-58
2021/07/04 03:19:10;;;;;;;18.08;12.30;;;;;;;;;;1493436;39;20031;-58
2021/07/04 03:20:13;;;;;;;19.80;12.57;;;;;;;;;;1493322;39;20034;-58
2021/07/04 03:21:14;;;;;;;18.15;12.00;;;;;;;;;;1493595;39;20031;-58
2021/07/04 03:22:15;;;;;;;19.27;11.88;;;;;;;;;;1493157;39;20028;-58
2021/07/04 03:23:17;;;;;;;19.17;12.23;;;;;;;;;;1493343;39;20024;-58
2021/07/04 03:24:18;;;;;;;17.77;11.82;;;;;;;;;;1493259;39;20020;-58
2021/07/04 03:25:20;;;;;;;18.30;12.15;;;;;;;;;;1493516;39;20373;-58
2021/07/04 03:26:21;;;;;;;18.63;12.07;;;;;;;;;;1493218;39;20388;-58
2021/07/04 03:27:25;;;;;;;20.20;12.82;;;;;;;;;;1493327;39;20024;-58
2021/07/04 03:28:25;;;;;;;20.48;12.68;;;;;;;;;;1493224;39;20020;-58
2021/07/04 03:29:27;;;;;;;17.60;11.38;;;;;;;;;;1493364;39;20024;-58
2021/07/04 03:30:28;;;;;;;19.33;12.63;;;;;;;;;;1493141;39;20070;-58
2021/07/04 03:31:30;;;;;;;21.80;12.73;;;;;;;;;;1493113;39;20034;-58
2021/07/04 03:32:31;;;;;;;18.40;11.65;;;;;;;;;;1493130;39;20391;-58
2021/07/04 03:33:33;;;;;;;17.92;12.23;;;;;;;;;;1493289;39;20027;-58
2021/07/04 03:34:34;;;;;;;18.13;12.30;;;;;;;;;;1493168;39;20392;-58
2021/07/04 03:35:36;;;;;;;18.25;12.63;;;;;;;;;;1493249;39;20056;-58
2021/07/04 03:36:38;;;;;;;18.50;12.35;;;;;;;;;;1493157;39;20027;-58
2021/07/04 03:37:39;;;;;;;18.33;12.13;;;;;;;;;;1493199;39;20020;-58
2021/07/04 03:38:42;;;;;;;18.63;11.98;;;;;;;;;;1493254;39;20333;-58
2021/07/04 03:39:43;;;;;;;18.50;12.18;;;;;;;;;;1493194;39;20026;-58
2021/07/04 03:40:45;;;;;;;19.08;12.38;;;;;;;;;;1493315;39;20032;-58
2021/07/04 03:41:46;;;;;;;18.63;13.00;;;;;;;;;;1493149;39;20016;-58
2021/07/04 03:42:50;;;;;;;20.38;12.82;;;;;;;;;;1493235;39;20038;-58
2021/07/04 03:43:51;;;;;;;19.30;12.77;;;;;;;;;;1493207;39;20031;-58
2021/07/04 03:44:53;;;;;;;19.08;12.45;;;;;;;;;;1493300;39;20025;-60
2021/07/04 03:45:54;;;;;;;19.27;12.55;;;;;;;;;;1493379;39;20020;-58
2021/07/04 03:46:55;;;;;;;18.85;12.88;;;;;;;;;;1493327;39;20284;-58
2021/07/04 03:47:56;;;;;;;15.90;11.55;;;;;;;;;;1493208;39;20016;-58
2021/07/04 03:48:58;;;;;;;21.65;12.48;;;;;;;;;;1492753;39;20043;-58
2021/07/04 03:49:59;;;;;;;18.17;12.40;;;;;;;;;;1492835;39;20028;-58
2021/07/04 03:51:02;;;;;;;18.20;11.98;;;;;;;;;;1493300;39;20049;-58
2021/07/04 03:52:03;;;;;;;18.92;12.38;;;;;;;;;;1493158;39;20035;-58
2021/07/04 03:53:05;;;;;;;23.00;13.38;;;;;;;;;;1493144;39;20283;-58
2021/07/04 03:54:06;;;;;;;17.90;12.35;;;;;;;;;;1493269;39;20031;-58
2021/07/04 03:55:11;;;;;;;17.55;12.30;;;;;;;;;;1493272;39;20035;-58
2021/07/04 03:56:12;;;;;;;16.65;11.95;;;;;;;;;;1493127;39;20068;-58
2021/07/04 03:57:23;;;;;;;20.08;12.55;;;;;;;;;;1493239;39;20016;-58
2021/07/04 03:58:25;;;;;;;20.70;11.68;;;;;;;;;;1493256;39;20364;-58
2021/07/04 03:59:27;;;;;;;17.10;11.52;;;;;;;;;;1493233;39;20276;-58
2021/07/04 04:00:27;;;;;;;20.58;11.45;;;;;;;;;;1493157;39;20030;-58
2021/07/04 04:01:29;;;;;;;18.23;11.85;;;;;;;;;;1493427;39;20024;-58
2021/07/04 04:02:30;;;;;;;19.00;12.10;;;;;;;;;;1493091;39;20028;-58
2021/07/04 04:03:32;;;;;;;17.55;12.05;;;;;;;;;;1493270;39;20036;-58
2021/07/04 04:04:33;;;;;;;15.50;11.02;;;;;;;;;;1493298;39;20020;-58
2021/07/04 04:05:35;;;;;;;18.63;11.63;;;;;;;;;;1493262;39;20276;-58
2021/07/04 04:06:36;;;;;;;16.40;11.43;;;;;;;;;;1493243;39;20050;-58
2021/07/04 04:07:38;;;;;;;19.13;12.43;;;;;;;;;;1493271;39;20028;-58
2021/07/04 04:08:38;;;;;;;16.98;11.63;;;;;;;;;;1493237;39;20076;-58
2021/07/04 04:09:42;;;;;;;17.23;11.43;;;;;;;;;;1493294;39;20295;-58
2021/07/04 04:10:43;;;;;;;21.77;12.95;;;;;;;;;;1493103;39;20032;-58
2021/07/04 04:11:44;;;;;;;19.17;12.88;;;;;;;;;;1493085;39;20093;-56
2021/07/04 04:12:45;;;;;;;20.42;12.43;;;;;;;;;;1493187;39;20031;-56
2021/07/04 04:13:48;;;;;;;17.33;12.10;;;;;;;;;;1493298;39;20024;-58
2021/07/04 04:14:50;;;;;;;18.95;12.20;;;;;;;;;;1493078;39;20036;-58
2021/07/04 04:15:53;;;;;;;29.33;13.52;;;;;;;;;;1493228;39;20409;-58
2021/07/04 04:16:53;;;;;;;18.58;12.23;;;;;;;;;;1493064;39;20031;-58
2021/07/04 04:17:57;;;;;;;18.42;12.15;;;;;;;;;;1493495;39;20335;-58
2021/07/04 04:18:58;;;;;;;17.48;12.13;;;;;;;;;;1493086;39;20024;-58
2021/07/04 04:20:00;;;;;;;17.17;11.85;;;;;;;;;;1493032;39;20503;-58
2021/07/04 04:21:01;;;;;;;21.05;13.13;;;;;;;;;;1493179;39;20031;-58
2021/07/04 04:22:03;;;;;;;20.20;13.57;;;;;;;;;;1493247;39;20047;-58
2021/07/04 04:23:04;;;;;;;19.05;12.38;;;;;;;;;;1493005;39;20035;-58
2021/07/04 04:24:06;;;;;;;18.15;12.52;;;;;;;;;;1493437;39;20278;-58
2021/07/04 04:25:09;;;;;;;18.55;12.15;;;;;;;;;;1493236;39;20024;-58
2021/07/04 04:26:12;;;;;;;22.13;14.38;;;;;;;;;;1493161;39;20032;-58
2021/07/04 04:27:13;;;;;;;22.20;13.43;;;;;;;;;;1493102;39;20392;-58
2021/07/04 04:28:14;;;;;;;22.23;13.02;;;;;;;;;;1493078;39;20036;-58
2021/07/04 04:29:17;;;;;;;21.63;13.70;;;;;;;;;;1493020;39;20020;-58
2021/07/04 04:30:19;;;;;;;19.65;12.68;;;;;;;;;;1493209;39;20374;-58
2021/07/04 04:31:20;;;;;;;20.80;13.20;;;;;;;;;;1493101;39;20035;-58
2021/07/04 04:32:22;;;;;;;20.38;13.70;;;;;;;;;;1493327;39;20035;-58
2021/07/04 04:33:23;;;;;;;19.63;12.77;;;;;;;;;;1493196;39;20094;-58
2021/07/04 04:34:25;;;;;;;18.55;12.77;;;;;;;;;;1493293;39;20036;-60
2021/07/04 04:35:25;;;;;;;20.65;13.18;;;;;;;;;;1493092;39;20031;-61
2021/07/04 04:36:27;;;;;;;20.55;13.75;;;;;;;;;;1493419;39;20050;-62
2021/07/04 04:37:28;;;;;;;19.83;13.25;;;;;;;;;;1493085;39;20019;-62
2021/07/04 04:38:30;;;;;;;19.00;12.45;;;;;;;;;;1493050;39;20024;-62
2021/07/04 04:39:31;;;;;;;20.60;13.13;;;;;;;;;;1493154;39;20031;-62
2021/07/04 04:40:33;;;;;;;18.60;13.15;;;;;;;;;;1493490;39;20020;-61
2021/07/04 04:41:36;;;;;;;19.52;13.02;;;;;;;;;;1493009;39;20034;-60
2021/07/04 04:42:37;;;;;;;19.95;13.68;;;;;;;;;;1493080;39;20369;-61
2021/07/04 04:43:40;;;;;;;20.50;13.40;;;;;;;;;;1493024;39;20409;-62
2021/07/04 04:44:43;;;;;;;19.38;12.75;;;;;;;;;;1493314;39;20027;-62
2021/07/04 04:45:44;;;;;;;17.88;12.27;;;;;;;;;;1493281;39;20055;-62
2021/07/04 04:46:46;;;;;;;18.50;12.57;;;;;;;;;;1493074;39;20051;-62
2021/07/04 04:47:47;;;;;;;20.55;13.07;;;;;;;;;;1492988;39;20020;-62
2021/07/04 04:48:49;;;;;;;18.70;13.23;;;;;;;;;;1493084;39;20058;-61
2021/07/04 04:49:50;;;;;;;19.42;13.10;;;;;;;;;;1493230;39;20077;-60
2021/07/04 04:50:51;;;;;;;22.00;13.57;;;;;;;;;;1493125;39;20121;-62
2021/07/04 04:51:52;;;;;;;20.90;13.82;;;;;;;;;;1492988;39;20024;-60
2021/07/04 04:52:54;;;;;;;21.65;14.32;;;;;;;;;;1493042;39;20031;-62
2021/07/04 04:53:55;;;;;;;19.85;13.20;;;;;;;;;;1492980;39;20028;-62
2021/07/04 04:54:57;;;;;;;22.58;14.77;;;;;;;;;;1492566;39;20027;-62
2021/07/04 04:55:58;;;;;;;20.73;13.93;;;;;;;;;;1492478;39;20435;-60
2021/07/04 04:57:05;;;;;;;21.40;14.57;;;;;;;;;;1493107;39;20020;-60
2021/07/04 04:58:06;;;;;;;21.77;14.30;;;;;;;;;;1493162;39;20398;-61
2021/07/04 04:59:08;;;;;;;19.25;13.40;;;;;;;;;;1493023;39;20109;-62
2021/07/04 05:00:13;;;;;;;21.02;15.00;;;;;;;;;;1492885;39;20019;-62
2021/07/04 05:01:15;;;;;;;20.38;13.85;;;;;;;;;;1492912;39;20089;-62
2021/07/04 05:02:15;;;;;;;22.67;13.95;;;;;;;;;;1493159;39;20027;-62
2021/07/04 05:03:17;;;;;;;18.95;13.82;;;;;;;;;;1493124;39;20395;-61
2021/07/04 05:04:18;;;;;;;19.95;13.95;;;;;;;;;;1493030;39;20050;-62
2021/07/04 05:05:20;;;;;;;20.65;13.60;;;;;;;;;;1492964;39;20027;-62
2021/07/04 05:06:21;;;;;;;18.80;13.93;;;;;;;;;;1493004;39;20031;-62
2021/07/04 05:07:23;;;;;;;19.85;13.85;;;;;;;;;;1493156;39;20105;-62
2021/07/04 05:08:25;;;;;;;21.13;14.05;;;;;;;;;;1492906;39;20047;-63
2021/07/04 05:09:28;;;;;;;21.70;14.68;;;;;;;;;;1493061;39;20017;-63
2021/07/04 05:10:29;;;;;;;23.73;14.35;;;;;;;;;;1493065;39;20024;-62
2021/07/04 05:11:31;;;;;;;20.55;13.65;;;;;;;;;;1493083;39;20298;-60
2021/07/04 05:12:32;;;;;;;19.80;14.07;;;;;;;;;;1492919;39;20032;-61
2021/07/04 05:13:34;;;;;;;19.65;13.77;;;;;;;;;;1493134;39;20035;-64
2021/07/04 05:14:35;;;;;;;22.35;14.63;;;;;;;;;;1493037;39;20435;-62
2021/07/04 05:15:38;;;;;;;21.75;14.85;;;;;;;;;;1493031;39;20100;-62
2021/07/04 05:16:39;;;;;;;21.98;14.18;;;;;;;;;;1492841;39;20020;-62
2021/07/04 05:17:41;;;;;;;20.73;14.00;;;;;;;;;;1493031;39;20020;-62
2021/07/04 05:18:43;;;;;;;19.27;13.70;;;;;;;;;;1493005;39;20020;-62
2021/07/04 05:19:44;;;;;;;21.60;14.35;;;;;;;;;;1493118;39;20024;-63
2021/07/04 05:20:45;;;;;;;21.35;14.05;;;;;;;;;;1492896;39;20418;-62
2021/07/04 05:21:47;;;;;;;22.52;15.18;;;;;;;;;;1493082;39;20020;-62
2021/07/04 05:22:48;;;;;;;22.25;14.40;;;;;;;;;;1492868;39;20039;-62
2021/07/04 05:23:50;;;;;;;23.30;14.48;;;;;;;;;;1493182;39;20023;-62
2021/07/04 05:24:50;;;;;;;18.55;13.85;;;;;;;;;;1492470;39;20028;-62
2021/07/04 05:25:56;;;;;;;21.02;13.55;;;;;;;;;;1488355;39;20020;-62
2021/07/04 05:26:56;;;;;;;21.08;13.95;;;;;;;;;;1492446;39;20024;-62
2021/07/04 05:27:58;;;;;;;21.40;14.43;;;;;;;;;;1493040;39;20020;-62
2021/07/04 05:28:59;;;;;;;20.90;14.25;;;;;;;;;;1492853;39;20348;-61
2021/07/04 05:30:02;;;;;;;21.45;13.93;;;;;;;;;;1492999;39;20028;-62
2021/07/04 05:31:04;;;;;;;21.40;14.70;;;;;;;;;;1492811;39;20031;-62
2021/07/04 05:32:07;;;;;;;22.45;14.07;;;;;;;;;;1492936;39;20031;-62
2021/07/04 05:33:08;;;;;;;22.75;15.05;;;;;;;;;;1493108;39;20051;-63
2021/07/04 05:34:10;;;;;;;24.08;14.27;;;;;;;;;;1493023;39;20024;-62
2021/07/04 05:35:11;;;;;;;22.83;14.43;;;;;;;;;;1493053;39;20024;-62
2021/07/04 05:36:13;;;;;;;23.27;14.27;;;;;;;;;;1492999;39;20027;-62
2021/07/04 05:37:15;;;;;;;21.88;13.98;;;;;;;;;;1492891;39;20024;-62
2021/07/04 05:38:19;;;;;;;24.58;16.15;;;;;;;;;;1492824;39;20432;-63
2021/07/04 05:39:21;;;;;;;21.23;15.23;;;;;;;;;;1493119;39;20035;-62
2021/07/04 05:40:22;;;;;;;22.25;15.00;;;;;;;;;;1492740;39;20368;-62
2021/07/04 05:41:24;;;;;;;22.52;15.20;;;;;;;;;;1492888;39;20032;-61
2021/07/04 05:42:25;;;;;;;21.88;14.93;;;;;;;;;;1492962;39;20030;-61
2021/07/04 05:43:27;;;;;;;19.50;12.90;;;;;;;;;;1493061;39;20406;-62
2021/07/04 05:44:27;;;;;;;19.67;12.23;;;;;;;;;;1492974;39;20016;-63
2021/07/04 05:45:29;;;;;;;22.65;12.95;;;;;;;;;;1493067;39;20237;-63
2021/07/04 05:46:33;;;;;;;18.40;13.63;;;;;;;;;;1493068;39;20020;-62
2021/07/04 05:47:35;;;;;;;17.73;12.52;;;;;;;;;;1492958;39;20039;-62
2021/07/04 05:48:37;;;;;;;17.15;11.85;;;;;;;;;;1493028;39;20020;-62
2021/07/04 05:49:39;;;;;;;19.02;12.48;;;;;;;;;;1493026;39;20035;-61
2021/07/04 05:50:40;;;;;;;18.55;12.75;;;;;;;;;;1492829;39;20028;-63
2021/07/04 05:51:42;;;;;;;18.13;12.18;;;;;;;;;;1493065;39;20024;-62
2021/07/04 05:52:45;;;;;;;18.92;12.95;;;;;;;;;;1492826;39;20035;-62
2021/07/04 05:53:47;;;;;;;21.10;13.13;;;;;;;;;;1492428;39;20031;-63
2021/07/04 05:54:48;;;;;;;16.98;11.93;;;;;;;;;;1493110;39;20027;-63
2021/07/04 05:55:50;;;;;;;17.00;12.38;;;;;;;;;;1492968;39;20292;-62
2021/07/04 05:56:50;;;;;;;18.27;13.02;;;;;;;;;;1492330;39;20023;-62
2021/07/04 05:57:52;;;;;;;18.80;12.70;;;;;;;;;;1492542;39;20028;-62
2021/07/04 05:58:53;;;;;;;18.30;13.27;;;;;;;;;;1492847;39;20418;-62
2021/07/04 05:59:55;;;;;;;18.92;12.82;;;;;;;;;;1492988;39;20031;-61